Time;durP1;ratioP1;P1;durP2;ratioP2;P2;SDS_P1;SDS_P2;PMS_P1;PMS_P2;Temp;Humidity;BMP_temperature;BMP_pressure;BME280_temperature;BME280_humidity;BME280_pressure;Samples;Min_cycle;Max_cycle;Signal;HPM_P1;HPM_P2
2021/03/06 00:01:00;;;;;;;1.53;1.47;;;20.10;41.00;;;;;;5073325;28;20473;-73
2021/03/06 00:03:26;;;;;;;4.53;1.90;;;20.10;40.90;;;;;;5074674;28;20492;-73
2021/03/06 00:05:52;;;;;;;2.13;2.03;;;20.10;41.00;;;;;;5070547;28;20468;-73
2021/03/06 00:08:23;;;;;;;3.20;1.80;;;20.10;41.00;;;;;;5071399;28;20542;-72
2021/03/06 00:10:49;;;;;;;1.70;1.60;;;20.10;41.10;;;;;;5074351;28;20484;-72
2021/03/06 00:13:15;;;;;;;2.70;1.80;;;20.00;40.90;;;;;;5075277;28;20542;-72
2021/03/06 00:15:46;;;;;;;1.80;1.70;;;20.00;40.90;;;;;;5069548;28;20496;-72
2021/03/06 00:18:12;;;;;;;3.40;1.60;;;20.00;41.00;;;;;;5067839;28;20485;-72
2021/03/06 00:20:38;;;;;;;1.93;1.83;;;20.00;41.00;;;;;;5071710;28;20480;-72
2021/03/06 00:23:04;;;;;;;2.27;2.17;;;20.00;41.40;;;;;;5071203;28;20485;-72
2021/03/06 00:25:31;;;;;;;2.13;1.83;;;20.00;41.20;;;;;;5075837;28;20488;-72
2021/03/06 00:27:57;;;;;;;3.07;2.10;;;20.00;41.20;;;;;;5070962;28;20986;-72
2021/03/06 00:30:24;;;;;;;2.10;1.70;;;20.00;41.20;;;;;;5087749;27;20495;-72
2021/03/06 00:32:51;;;;;;;2.77;2.10;;;20.10;41.20;;;;;;5078055;27;20487;-72
2021/03/06 00:35:17;;;;;;;1.47;1.20;;;20.10;41.00;;;;;;5091527;27;20487;-72
2021/03/06 00:37:43;;;;;;;2.13;1.93;;;20.10;41.10;;;;;;5080128;27;20484;-72
2021/03/06 00:40:10;;;;;;;1.40;1.40;;;20.00;41.20;;;;;;5071554;28;20857;-73
2021/03/06 00:42:37;;;;;;;4.63;1.73;;;20.00;41.00;;;;;;5074796;28;20473;-72
2021/03/06 00:45:04;;;;;;;5.63;2.33;;;20.00;41.00;;;;;;5070009;28;20989;-72
2021/03/06 00:47:30;;;;;;;1.57;1.47;;;20.00;40.90;;;;;;5072714;28;20488;-73
2021/03/06 00:49:57;;;;;;;3.43;1.67;;;20.00;40.90;;;;;;5070295;28;20568;-73
2021/03/06 00:52:23;;;;;;;1.50;1.43;;;20.00;41.10;;;;;;5068125;28;20488;-73
2021/03/06 00:54:49;;;;;;;1.90;1.80;;;20.00;41.20;;;;;;5070278;28;20484;-73
2021/03/06 00:57:15;;;;;;;1.50;1.40;;;20.10;41.10;;;;;;5071757;28;20477;-73
2021/03/06 00:59:42;;;;;;;3.10;1.50;;;20.10;41.00;;;;;;5071486;28;20487;-72
2021/03/06 01:02:08;;;;;;;1.57;1.47;;;20.10;40.80;;;;;;5073189;28;20486;-73
2021/03/06 01:04:34;;;;;;;3.37;1.73;;;20.10;40.80;;;;;;5074574;28;20606;-72
2021/03/06 01:07:01;;;;;;;1.03;1.03;;;20.10;40.80;;;;;;5072742;28;20488;-73
2021/03/06 01:09:27;;;;;;;1.37;1.20;;;20.10;40.80;;;;;;5070894;28;20485;-72
2021/03/06 01:11:53;;;;;;;2.30;1.87;;;20.10;40.90;;;;;;5094017;27;21671;-70
2021/03/06 01:14:20;;;;;;;1.40;1.40;;;20.10;41.00;;;;;;5085180;27;20494;-71
2021/03/06 01:16:46;;;;;;;1.83;1.73;;;20.10;40.90;;;;;;5082830;27;20486;-70
2021/03/06 01:19:12;;;;;;;1.80;1.70;;;20.10;40.90;;;;;;5078564;27;21286;-72
2021/03/06 01:21:38;;;;;;;1.50;1.50;;;20.10;41.00;;;;;;5069339;28;21067;-71
2021/03/06 01:24:06;;;;;;;1.50;1.40;;;20.10;41.00;;;;;;5071185;28;20949;-71
2021/03/06 01:26:33;;;;;;;1.37;1.37;;;20.10;41.20;;;;;;5064771;28;20504;-71
2021/03/06 01:28:59;;;;;;;1.50;1.40;;;20.00;41.10;;;;;;5081869;28;20513;-71
2021/03/06 01:31:25;;;;;;;1.50;1.40;;;20.00;41.10;;;;;;5068643;28;20485;-71
2021/03/06 01:33:51;;;;;;;2.30;1.60;;;20.00;41.10;;;;;;5069597;28;21003;-71
2021/03/06 01:36:17;;;;;;;1.30;1.20;;;20.00;41.00;;;;;;5064827;27;20483;-72
2021/03/06 01:38:44;;;;;;;2.10;1.43;;;20.00;40.90;;;;;;5097667;27;20855;-71
2021/03/06 01:41:11;;;;;;;1.27;1.17;;;20.00;40.90;;;;;;5071287;28;20542;-71
2021/03/06 01:43:37;;;;;;;1.13;1.13;;;20.00;41.10;;;;;;5072114;28;20485;-71
2021/03/06 01:46:03;;;;;;;1.53;1.53;;;20.00;41.20;;;;;;5067323;28;20519;-71
2021/03/06 01:48:29;;;;;;;2.20;1.20;;;20.00;41.20;;;;;;5071269;28;20486;-71
2021/03/06 01:50:55;;;;;;;2.40;1.50;;;20.00;41.80;;;;;;5069268;28;21267;-71
2021/03/06 01:53:23;;;;;;;1.30;1.20;;;20.00;41.20;;;;;;5068573;28;20480;-70
2021/03/06 01:55:49;;;;;;;2.00;1.50;;;20.00;41.10;;;;;;5069122;28;20485;-73
2021/03/06 01:58:16;;;;;;;2.90;1.50;;;20.00;40.90;;;;;;5054962;27;20494;-72
2021/03/06 02:00:42;;;;;;;1.40;1.23;;;20.00;40.80;;;;;;5096440;27;20493;-71
2021/03/06 02:03:08;;;;;;;2.40;1.30;;;20.00;40.90;;;;;;5073221;28;20867;-71
2021/03/06 02:05:34;;;;;;;1.87;1.33;;;20.00;41.10;;;;;;5069437;28;20485;-71
2021/03/06 02:08:02;;;;;;;1.53;1.10;;;20.00;41.10;;;;;;5070468;27;20484;-72
2021/03/06 02:10:30;;;;;;;1.57;1.47;;;20.00;41.20;;;;;;5072229;28;20508;-72
2021/03/06 02:13:02;;;;;;;1.67;1.23;;;19.90;41.10;;;;;;5069966;28;20481;-72
2021/03/06 02:15:42;;;;;;;2.10;1.20;;;19.90;41.10;;;;;;5069367;28;20477;-72
2021/03/06 02:18:11;;;;;;;1.20;1.10;;;19.90;40.80;;;;;;5089167;27;21075;-71
2021/03/06 02:20:45;;;;;;;1.10;1.10;;;19.90;41.00;;;;;;5070401;28;20472;-72
2021/03/06 02:23:40;;;;;;;1.20;1.00;;;19.90;40.80;;;;;;5063502;27;20481;-71
2021/03/06 02:26:50;;;;;;;1.30;1.20;;;19.90;40.80;;;;;;5088581;27;20509;-72
2021/03/06 02:29:50;;;;;;;1.10;1.00;;;19.90;41.10;;;;;;5036464;28;20488;-72
2021/03/06 02:32:20;;;;;;;1.43;1.13;;;19.90;40.80;;;;;;5057273;28;20507;-72
2021/03/06 02:34:51;;;;;;;1.23;1.13;;;19.90;41.10;;;;;;5060282;28;20481;-71
2021/03/06 02:37:21;;;;;;;2.80;1.50;;;19.90;41.30;;;;;;5061696;28;20488;-72
2021/03/06 02:39:48;;;;;;;2.60;1.43;;;19.90;41.30;;;;;;5060926;28;21077;-72
2021/03/06 02:42:17;;;;;;;1.30;1.20;;;19.90;41.20;;;;;;5076084;27;20467;-71
2021/03/06 02:44:43;;;;;;;1.03;0.93;;;19.90;41.20;;;;;;5086737;27;20490;-71
2021/03/06 02:47:10;;;;;;;1.73;1.10;;;20.00;41.20;;;;;;5083338;27;20491;-71
2021/03/06 02:49:36;;;;;;;1.00;0.90;;;20.00;41.10;;;;;;5081314;27;20487;-71
2021/03/06 02:52:02;;;;;;;0.87;0.87;;;20.00;41.20;;;;;;5067612;28;21033;-72
2021/03/06 02:54:29;;;;;;;2.60;1.03;;;20.00;41.20;;;;;;5069823;28;20478;-72
2021/03/06 02:56:55;;;;;;;1.67;0.93;;;19.90;41.10;;;;;;5066945;28;20524;-71
2021/03/06 02:59:33;;;;;;;0.93;0.93;;;19.90;41.20;;;;;;5070763;28;20480;-72
2021/03/06 03:02:05;;;;;;;2.40;0.90;;;19.90;41.10;;;;;;5091019;27;20483;-72
2021/03/06 03:04:34;;;;;;;2.30;1.00;;;19.90;41.20;;;;;;5068825;28;20539;-72
2021/03/06 03:07:03;;;;;;;0.80;0.80;;;19.90;41.40;;;;;;5068412;28;20482;-72
2021/03/06 03:09:30;;;;;;;2.80;1.00;;;20.00;41.30;;;;;;5069815;28;20481;-72
2021/03/06 03:11:58;;;;;;;1.20;1.10;;;20.00;41.00;;;;;;5070603;28;20516;-71
2021/03/06 03:14:28;;;;;;;1.20;1.00;;;20.00;41.10;;;;;;5070145;28;20481;-71
2021/03/06 03:16:55;;;;;;;1.57;0.80;;;20.00;41.10;;;;;;5065212;28;20485;-72
2021/03/06 03:19:27;;;;;;;2.47;1.00;;;20.00;41.20;;;;;;5066082;28;20470;-72
2021/03/06 03:21:54;;;;;;;0.80;0.80;;;20.00;41.30;;;;;;5068582;28;20488;-71
2021/03/06 03:24:21;;;;;;;1.93;1.17;;;20.00;41.20;;;;;;5066973;28;20483;-72
2021/03/06 03:26:47;;;;;;;1.57;1.00;;;19.90;41.30;;;;;;5071349;28;20472;-72
2021/03/06 03:29:14;;;;;;;2.70;1.33;;;19.90;41.30;;;;;;5068298;28;20502;-72
2021/03/06 03:31:40;;;;;;;1.20;1.10;;;19.90;41.20;;;;;;5070774;28;20488;-72
2021/03/06 03:34:07;;;;;;;1.97;1.20;;;19.90;41.10;;;;;;5073349;28;20997;-72
2021/03/06 03:36:34;;;;;;;1.07;1.07;;;19.90;41.30;;;;;;5072796;28;20468;-72
2021/03/06 03:39:01;;;;;;;0.97;0.97;;;19.90;41.20;;;;;;5073511;28;20493;-72
2021/03/06 03:41:28;;;;;;;4.03;1.57;;;19.90;41.40;;;;;;5089455;27;20482;-72
2021/03/06 03:43:54;;;;;;;1.00;1.00;;;19.90;41.30;;;;;;5078159;27;21413;-72
2021/03/06 03:46:20;;;;;;;3.40;1.83;;;19.90;41.30;;;;;;5073949;28;20553;-71
2021/03/06 03:48:46;;;;;;;0.70;0.70;;;19.90;41.20;;;;;;5072876;28;20496;-71
2021/03/06 03:51:13;;;;;;;1.53;0.90;;;19.90;41.20;;;;;;5070682;28;21050;-71
2021/03/06 03:53:39;;;;;;;2.07;1.00;;;20.00;41.10;;;;;;5070099;28;20483;-71
2021/03/06 03:56:07;;;;;;;2.20;0.83;;;20.00;41.10;;;;;;5074586;28;20479;-71
2021/03/06 03:58:33;;;;;;;1.90;1.30;;;19.90;41.20;;;;;;5072235;28;20468;-71
2021/03/06 04:01:00;;;;;;;1.10;0.80;;;19.90;41.20;;;;;;5073746;28;20510;-71
2021/03/06 04:03:26;;;;;;;1.77;0.83;;;19.90;41.10;;;;;;5073489;28;20481;-72
2021/03/06 04:05:53;;;;;;;0.97;0.97;;;19.90;41.30;;;;;;5072562;28;20477;-71
2021/03/06 04:08:19;;;;;;;0.83;0.80;;;19.90;41.40;;;;;;5072500;28;20484;-71
2021/03/06 04:10:45;;;;;;;2.03;0.97;;;19.90;41.50;;;;;;5070878;28;20982;-71
2021/03/06 04:13:12;;;;;;;1.13;1.13;;;19.90;41.30;;;;;;5073130;28;20477;-71
2021/03/06 04:15:38;;;;;;;3.30;0.90;;;20.00;41.20;;;;;;5071606;28;20489;-72
2021/03/06 04:18:05;;;;;;;5.33;0.97;;;20.00;41.40;;;;;;5073343;28;20477;-71
2021/03/06 04:20:31;;;;;;;1.17;1.07;;;20.00;41.50;;;;;;5071146;28;20472;-72
2021/03/06 04:22:57;;;;;;;5.33;0.90;;;20.00;41.20;;;;;;5073179;28;20478;-72
2021/03/06 04:25:24;;;;;;;2.20;1.10;;;20.00;41.20;;;;;;5071684;28;20489;-72
2021/03/06 04:27:50;;;;;;;1.33;1.20;;;20.00;41.20;;;;;;5073461;28;20499;-72
2021/03/06 04:30:18;;;;;;;1.43;0.93;;;20.00;41.40;;;;;;5069856;28;21055;-72
2021/03/06 04:32:44;;;;;;;0.97;0.90;;;20.00;41.40;;;;;;5071672;28;20496;-72
2021/03/06 04:35:11;;;;;;;1.53;1.10;;;19.90;41.40;;;;;;5074707;28;20515;-72
2021/03/06 04:37:37;;;;;;;3.10;0.80;;;19.90;41.40;;;;;;5076413;28;20479;-72
2021/03/06 04:40:04;;;;;;;1.80;0.80;;;19.90;41.50;;;;;;5095921;27;21105;-71
2021/03/06 04:42:30;;;;;;;1.20;1.00;;;19.90;41.40;;;;;;5068889;27;20489;-72
2021/03/06 04:44:57;;;;;;;0.90;0.90;;;19.90;41.30;;;;;;5100688;27;20485;-72
2021/03/06 04:47:24;;;;;;;0.70;0.70;;;19.90;41.40;;;;;;5071842;28;20484;-72
2021/03/06 04:49:50;;;;;;;0.97;0.80;;;19.90;41.30;;;;;;5093110;27;20510;-71
2021/03/06 04:52:16;;;;;;;0.70;0.70;;;19.90;41.40;;;;;;5069530;28;20538;-72
2021/03/06 04:54:43;;;;;;;1.90;0.80;;;19.90;41.60;;;;;;5072797;28;20473;-72
2021/03/06 04:57:09;;;;;;;1.37;0.70;;;19.90;41.60;;;;;;5071359;28;20562;-72
2021/03/06 04:59:35;;;;;;;1.53;0.83;;;19.90;41.50;;;;;;5067984;28;20505;-72
2021/03/06 05:02:01;;;;;;;1.20;1.10;;;19.90;41.60;;;;;;5073510;28;20536;-72
2021/03/06 05:04:28;;;;;;;0.70;0.70;;;19.90;41.50;;;;;;5070948;28;20480;-72
2021/03/06 05:06:55;;;;;;;3.70;1.67;;;19.90;41.50;;;;;;5069354;28;21007;-73
2021/03/06 05:09:21;;;;;;;0.70;0.70;;;20.00;41.70;;;;;;5070198;28;20480;-73
2021/03/06 05:11:47;;;;;;;1.33;0.77;;;19.90;41.60;;;;;;5094036;27;20508;-72
2021/03/06 05:14:13;;;;;;;1.10;1.10;;;19.90;41.40;;;;;;5072595;28;20476;-73
2021/03/06 05:16:39;;;;;;;0.60;0.60;;;19.90;41.50;;;;;;5092283;27;20471;-73
2021/03/06 05:19:06;;;;;;;1.13;0.80;;;19.90;41.50;;;;;;5070610;28;20842;-73
2021/03/06 05:21:33;;;;;;;1.60;1.13;;;19.90;41.60;;;;;;5071321;28;20485;-73
2021/03/06 05:23:59;;;;;;;1.73;0.90;;;19.90;41.60;;;;;;5070438;28;20478;-73
2021/03/06 05:26:25;;;;;;;3.47;0.87;;;19.90;41.50;;;;;;5070883;28;20481;-72
2021/03/06 05:28:51;;;;;;;1.60;1.30;;;19.90;41.60;;;;;;5071099;28;21186;-73
2021/03/06 05:31:17;;;;;;;0.70;0.70;;;19.90;41.80;;;;;;5071803;28;20474;-72
2021/03/06 05:33:44;;;;;;;2.07;0.83;;;19.90;41.80;;;;;;5094826;27;20477;-72
2021/03/06 05:36:10;;;;;;;1.60;1.00;;;19.90;41.80;;;;;;5069477;28;21230;-73
2021/03/06 05:38:37;;;;;;;0.93;0.83;;;19.90;41.80;;;;;;5072011;28;20477;-73
2021/03/06 05:41:03;;;;;;;0.90;0.70;;;19.90;41.60;;;;;;5089899;27;20471;-72
2021/03/06 05:43:29;;;;;;;2.20;0.70;;;19.90;41.70;;;;;;5078192;27;20486;-73
2021/03/06 05:45:55;;;;;;;0.80;0.80;;;19.90;41.60;;;;;;5067836;27;21489;-73
2021/03/06 05:48:22;;;;;;;0.60;0.60;;;19.90;41.60;;;;;;5095214;27;20481;-72
2021/03/06 05:50:50;;;;;;;1.10;0.70;;;19.90;41.60;;;;;;5070411;28;20480;-73
2021/03/06 05:53:16;;;;;;;0.93;0.93;;;19.80;41.70;;;;;;5066765;28;20477;-72
2021/03/06 05:55:43;;;;;;;0.90;0.80;;;19.80;41.70;;;;;;5069932;28;21531;-73
2021/03/06 05:58:10;;;;;;;1.33;0.80;;;19.80;41.80;;;;;;5067421;28;20486;-73
2021/03/06 06:00:38;;;;;;;1.40;1.30;;;19.70;41.90;;;;;;5071960;28;20488;-74
2021/03/06 06:03:05;;;;;;;0.90;0.90;;;19.70;41.90;;;;;;5070709;28;20478;-72
2021/03/06 06:05:31;;;;;;;1.13;1.00;;;19.70;41.90;;;;;;5071792;28;20485;-73
2021/03/06 06:07:58;;;;;;;1.10;1.00;;;19.70;41.90;;;;;;5077567;27;20480;-73
2021/03/06 06:10:24;;;;;;;2.13;0.80;;;19.70;41.80;;;;;;5086882;27;20481;-73
2021/03/06 06:12:51;;;;;;;1.10;0.97;;;19.70;41.80;;;;;;5078181;28;20852;-73
2021/03/06 06:15:19;;;;;;;3.90;0.83;;;19.70;41.70;;;;;;5087988;27;20471;-73
2021/03/06 06:17:46;;;;;;;3.30;1.13;;;19.70;41.60;;;;;;5070086;28;20465;-72
2021/03/06 06:20:12;;;;;;;1.87;0.80;;;19.80;41.60;;;;;;5069808;28;20492;-72
2021/03/06 06:22:38;;;;;;;1.00;0.90;;;19.80;41.60;;;;;;5069750;28;20481;-73
2021/03/06 06:25:05;;;;;;;1.33;0.97;;;19.80;41.50;;;;;;5060619;27;20481;-73
2021/03/06 06:27:32;;;;;;;1.03;0.70;;;19.90;41.40;;;;;;5098991;27;20478;-73
2021/03/06 06:30:00;;;;;;;1.43;0.77;;;20.00;41.50;;;;;;5090770;27;20484;-73
2021/03/06 06:32:27;;;;;;;2.60;1.20;;;20.00;41.40;;;;;;5070252;28;20525;-73
2021/03/06 06:34:57;;;;;;;1.17;1.03;;;20.10;41.30;;;;;;5066167;28;20478;-73
2021/03/06 06:37:24;;;;;;;1.37;0.90;;;20.10;42.10;;;;;;5065226;27;20459;-72
2021/03/06 06:39:50;;;;;;;1.23;0.90;;;20.10;41.30;;;;;;5075944;27;20887;-72
2021/03/06 06:42:16;;;;;;;0.93;0.67;;;20.00;41.20;;;;;;5071093;28;20469;-73
2021/03/06 06:44:53;;;;;;;1.37;1.27;;;20.00;41.30;;;;;;5069437;28;20493;-73
2021/03/06 06:47:20;;;;;;;0.90;0.80;;;20.00;41.50;;;;;;5062501;28;20469;-73
2021/03/06 06:49:47;;;;;;;0.80;0.80;;;20.00;41.50;;;;;;5071034;28;20464;-73
2021/03/06 06:52:14;;;;;;;1.03;0.50;;;19.90;41.40;;;;;;5070926;28;20485;-73
2021/03/06 06:54:40;;;;;;;1.37;0.90;;;20.00;41.50;;;;;;5070605;28;20952;-73
2021/03/06 06:57:10;;;;;;;1.43;0.80;;;19.90;41.50;;;;;;5069676;28;20474;-73
2021/03/06 06:59:37;;;;;;;3.33;0.97;;;19.90;41.60;;;;;;5093710;27;20479;-72
2021/03/06 07:02:07;;;;;;;2.20;0.80;;;19.90;41.70;;;;;;5069563;28;20467;-73
2021/03/06 07:04:44;;;;;;;1.60;1.10;;;19.90;41.60;;;;;;5071476;28;20892;-72
2021/03/06 07:07:13;;;;;;;0.70;0.70;;;20.00;41.70;;;;;;5063670;28;20486;-72
2021/03/06 07:09:54;;;;;;;0.83;0.83;;;20.00;41.50;;;;;;5096070;28;21098;-72
2021/03/06 07:12:22;;;;;;;4.67;0.90;;;20.10;41.40;;;;;;5060215;28;20987;-73
2021/03/06 07:14:48;;;;;;;1.00;0.70;;;20.10;41.40;;;;;;5068556;28;20473;-72
2021/03/06 07:17:14;;;;;;;1.03;0.90;;;20.10;41.30;;;;;;5070017;28;20484;-74
2021/03/06 07:19:41;;;;;;;1.47;0.60;;;20.10;41.40;;;;;;5072166;28;20483;-74
2021/03/06 07:22:08;;;;;;;0.87;0.87;;;20.10;41.30;;;;;;5086987;28;20543;-74
2021/03/06 07:24:34;;;;;;;0.63;0.60;;;20.10;41.30;;;;;;5070478;28;20484;-74
2021/03/06 07:27:01;;;;;;;2.37;0.77;;;20.10;41.30;;;;;;5087940;28;21497;-74
2021/03/06 07:29:28;;;;;;;1.93;0.57;;;20.10;41.30;;;;;;5070328;28;20468;-73
2021/03/06 07:31:54;;;;;;;2.77;0.80;;;20.10;41.30;;;;;;5068025;28;20484;-74
2021/03/06 07:34:21;;;;;;;1.67;1.10;;;20.10;41.30;;;;;;5069213;28;20478;-74
2021/03/06 07:36:48;;;;;;;0.73;0.73;;;20.10;41.40;;;;;;5067994;28;20473;-73
2021/03/06 07:39:15;;;;;;;1.93;0.93;;;20.10;41.30;;;;;;5064672;28;20476;-74
2021/03/06 07:41:43;;;;;;;0.60;0.60;;;20.10;41.30;;;;;;5098272;27;20854;-74
2021/03/06 07:44:11;;;;;;;3.13;0.90;;;20.10;41.30;;;;;;5068941;28;20481;-71
2021/03/06 07:46:38;;;;;;;0.93;0.80;;;20.20;41.40;;;;;;5068691;28;20469;-71
2021/03/06 07:49:10;;;;;;;2.00;0.80;;;20.20;41.40;;;;;;5067505;28;20552;-72
2021/03/06 07:51:36;;;;;;;1.23;0.90;;;20.20;41.30;;;;;;5071499;28;20529;-72
2021/03/06 07:54:02;;;;;;;0.80;0.80;;;20.20;41.30;;;;;;5069506;28;20474;-72
2021/03/06 07:56:29;;;;;;;1.83;0.77;;;20.20;41.30;;;;;;5067916;28;20474;-72
2021/03/06 07:58:55;;;;;;;0.90;0.80;;;20.20;41.20;;;;;;5069398;28;20485;-72
2021/03/06 08:01:24;;;;;;;1.03;0.90;;;20.20;41.30;;;;;;5067592;28;21091;-73
2021/03/06 08:03:51;;;;;;;3.17;0.93;;;20.20;41.40;;;;;;5094543;28;20477;-72
2021/03/06 08:06:23;;;;;;;5.63;1.03;;;20.20;41.40;;;;;;5073637;28;20531;-72
2021/03/06 08:09:08;;;;;;;2.10;0.77;;;20.20;41.50;;;;;;5081780;28;20485;-73
2021/03/06 08:11:45;;;;;;;2.10;0.70;;;20.10;41.40;;;;;;5072747;28;20876;-72
2021/03/06 08:14:41;;;;;;;1.10;0.87;;;20.10;41.50;;;;;;5069594;28;20469;-72
2021/03/06 08:17:30;;;;;;;1.47;0.70;;;20.10;41.50;;;;;;5067642;28;20474;-73
2021/03/06 08:19:56;;;;;;;1.00;0.90;;;20.10;41.50;;;;;;5063742;28;20480;-72
2021/03/06 08:22:23;;;;;;;1.70;0.80;;;20.10;41.50;;;;;;5074045;28;20940;-72
2021/03/06 08:24:49;;;;;;;1.90;0.70;;;20.10;41.60;;;;;;5079188;28;20519;-72
2021/03/06 08:27:17;;;;;;;1.87;0.77;;;20.10;41.60;;;;;;5072592;28;20481;-71
2021/03/06 08:29:44;;;;;;;3.63;1.10;;;20.10;41.60;;;;;;5073336;28;20487;-71
2021/03/06 08:32:12;;;;;;;2.87;1.23;;;20.10;41.60;;;;;;5071836;28;20476;-72
2021/03/06 08:34:43;;;;;;;3.07;0.80;;;20.10;41.70;;;;;;5071628;28;21608;-71
2021/03/06 08:37:31;;;;;;;3.03;0.97;;;20.20;41.70;;;;;;5067724;28;20516;-72
2021/03/06 08:39:59;;;;;;;0.70;0.70;;;20.20;41.70;;;;;;5066165;28;20496;-73
2021/03/06 08:42:27;;;;;;;1.20;1.10;;;20.20;41.60;;;;;;5093755;27;20501;-73
2021/03/06 08:44:53;;;;;;;1.30;1.10;;;20.20;41.60;;;;;;5059770;28;20503;-72
2021/03/06 08:47:21;;;;;;;2.70;0.90;;;20.20;41.60;;;;;;5071707;28;20538;-73
2021/03/06 08:49:47;;;;;;;0.60;0.53;;;20.20;41.60;;;;;;5071855;28;20529;-72
2021/03/06 08:52:13;;;;;;;4.63;1.23;;;20.20;41.80;;;;;;5072709;28;20489;-72
2021/03/06 08:54:40;;;;;;;1.27;0.70;;;20.20;41.80;;;;;;5071818;28;20477;-72
2021/03/06 08:57:07;;;;;;;2.60;1.57;;;20.20;42.00;;;;;;5071536;28;20477;-72
2021/03/06 08:59:39;;;;;;;1.33;1.33;;;20.20;41.80;;;;;;5074188;28;21797;-72
2021/03/06 09:02:13;;;;;;;2.40;1.03;;;20.30;41.90;;;;;;5070309;28;20485;-72
2021/03/06 09:04:40;;;;;;;0.87;0.77;;;20.30;41.90;;;;;;5072699;28;20469;-72
2021/03/06 09:07:09;;;;;;;2.23;1.20;;;20.30;41.80;;;;;;5069275;28;20481;-73
2021/03/06 09:09:35;;;;;;;1.10;0.67;;;20.30;41.70;;;;;;5072618;28;20484;-73
2021/03/06 09:12:02;;;;;;;0.83;0.80;;;20.30;41.70;;;;;;5067954;28;20488;-73
2021/03/06 09:14:28;;;;;;;1.70;0.80;;;20.30;41.70;;;;;;5071686;28;20474;-73
2021/03/06 09:16:56;;;;;;;3.87;0.83;;;20.30;41.70;;;;;;5066086;28;20481;-73
2021/03/06 09:19:23;;;;;;;1.03;0.70;;;20.30;41.80;;;;;;5072321;28;20480;-72
2021/03/06 09:21:57;;;;;;;0.67;0.67;;;20.20;41.80;;;;;;5070250;28;20465;-73
2021/03/06 09:24:23;;;;;;;0.60;0.60;;;20.20;41.80;;;;;;5057622;28;20481;-73
2021/03/06 09:26:52;;;;;;;0.87;0.80;;;20.20;41.90;;;;;;5072356;27;21479;-72
2021/03/06 09:29:18;;;;;;;1.30;1.20;;;20.20;42.00;;;;;;5090461;27;20889;-73
2021/03/06 09:31:49;;;;;;;1.37;0.80;;;20.20;42.10;;;;;;5069724;28;20477;-73
2021/03/06 09:34:16;;;;;;;1.67;0.60;;;20.20;42.10;;;;;;5074135;28;20473;-73
2021/03/06 09:36:42;;;;;;;0.77;0.70;;;20.20;42.10;;;;;;5072797;28;20468;-73
2021/03/06 09:39:09;;;;;;;1.67;0.73;;;20.30;42.10;;;;;;5092722;27;20480;-73
2021/03/06 09:41:38;;;;;;;2.93;1.23;;;20.30;42.00;;;;;;5073552;28;20972;-72
2021/03/06 09:44:05;;;;;;;1.33;0.63;;;20.30;42.00;;;;;;5067334;28;20512;-73
2021/03/06 09:46:32;;;;;;;1.20;0.90;;;20.30;42.00;;;;;;5071479;28;21258;-72
2021/03/06 09:48:59;;;;;;;1.03;0.70;;;20.30;42.10;;;;;;5070460;28;21477;-73
2021/03/06 09:51:37;;;;;;;0.73;0.73;;;20.30;42.10;;;;;;5071501;28;21181;-73
2021/03/06 09:54:04;;;;;;;0.80;0.80;;;20.20;42.10;;;;;;5068672;28;20466;-73
2021/03/06 09:56:30;;;;;;;4.83;0.70;;;20.20;42.10;;;;;;5069144;28;21021;-73
2021/03/06 09:59:03;;;;;;;1.07;0.83;;;20.20;42.10;;;;;;5068950;28;20476;-73
2021/03/06 10:01:30;;;;;;;3.13;0.60;;;20.20;42.20;;;;;;5063285;28;20482;-73
2021/03/06 10:03:56;;;;;;;1.77;0.83;;;20.20;42.30;;;;;;5071718;28;20560;-73
2021/03/06 10:06:23;;;;;;;1.20;0.87;;;20.20;42.30;;;;;;5070481;28;20483;-73
2021/03/06 10:08:52;;;;;;;0.70;0.60;;;20.10;42.20;;;;;;5067661;28;20482;-72
2021/03/06 10:11:18;;;;;;;2.37;1.20;;;20.10;42.30;;;;;;5072882;28;20477;-71
2021/03/06 10:13:47;;;;;;;0.70;0.70;;;20.20;42.50;;;;;;5067766;28;21005;-72
2021/03/06 10:16:13;;;;;;;0.70;0.70;;;20.20;42.50;;;;;;5068870;28;20481;-72
2021/03/06 10:18:39;;;;;;;1.07;0.80;;;20.20;42.40;;;;;;5071597;28;20575;-73
2021/03/06 10:21:19;;;;;;;0.90;0.80;;;20.20;42.30;;;;;;5069653;28;20481;-73
2021/03/06 10:23:46;;;;;;;0.57;0.57;;;20.20;42.30;;;;;;5089286;27;20966;-72
2021/03/06 10:26:23;;;;;;;0.70;0.70;;;20.20;42.30;;;;;;5073700;27;20478;-73
2021/03/06 10:28:51;;;;;;;1.13;0.90;;;20.20;42.30;;;;;;5091521;27;20472;-73
2021/03/06 10:31:34;;;;;;;1.90;0.50;;;20.20;42.30;;;;;;5068545;28;20477;-71
2021/03/06 10:34:23;;;;;;;0.70;0.60;;;20.20;42.30;;;;;;5059653;27;20908;-73
2021/03/06 10:37:06;;;;;;;0.67;0.67;;;20.20;42.40;;;;;;5086835;27;20472;-72
2021/03/06 10:39:32;;;;;;;0.60;0.60;;;20.20;42.40;;;;;;5070551;28;20480;-72
2021/03/06 10:41:59;;;;;;;0.80;0.80;;;20.20;42.30;;;;;;5070555;28;21053;-73
2021/03/06 10:44:38;;;;;;;0.77;0.60;;;20.20;42.30;;;;;;5069896;28;20469;-72
2021/03/06 10:47:04;;;;;;;0.80;0.80;;;20.30;42.30;;;;;;5069645;28;20499;-72
2021/03/06 10:49:35;;;;;;;0.60;0.60;;;20.30;42.30;;;;;;5070908;28;20477;-72
2021/03/06 10:52:01;;;;;;;0.63;0.63;;;20.30;42.30;;;;;;5069782;28;20478;-72
2021/03/06 10:54:27;;;;;;;0.67;0.67;;;20.30;42.20;;;;;;5068972;28;20504;-72
2021/03/06 10:57:03;;;;;;;0.73;0.70;;;20.20;42.20;;;;;;5068787;28;20487;-72
2021/03/06 10:59:33;;;;;;;1.00;0.87;;;20.20;42.30;;;;;;5065511;28;20477;-72
2021/03/06 11:01:59;;;;;;;1.90;0.70;;;20.20;42.30;;;;;;5068119;28;20490;-72
2021/03/06 11:04:29;;;;;;;2.33;0.60;;;20.20;42.40;;;;;;5072351;28;20475;-71
2021/03/06 11:06:56;;;;;;;2.53;0.97;;;20.20;42.40;;;;;;5057773;28;20472;-72
2021/03/06 11:09:27;;;;;;;0.90;0.70;;;20.20;42.40;;;;;;5070491;28;20534;-72
2021/03/06 11:11:53;;;;;;;0.90;0.70;;;20.10;42.40;;;;;;5070374;28;20472;-72
2021/03/06 11:14:24;;;;;;;1.00;0.60;;;20.10;42.30;;;;;;5079998;28;20618;-72
2021/03/06 11:16:51;;;;;;;1.13;0.57;;;20.10;42.40;;;;;;5076887;28;20480;-73
2021/03/06 11:19:17;;;;;;;1.53;0.90;;;20.20;42.50;;;;;;5070689;28;21490;-72
2021/03/06 11:21:43;;;;;;;1.07;0.73;;;20.20;42.40;;;;;;5070130;28;20493;-72
2021/03/06 11:24:10;;;;;;;0.83;0.70;;;20.20;42.30;;;;;;5077917;28;21415;-73
2021/03/06 11:26:36;;;;;;;0.60;0.60;;;20.20;42.30;;;;;;5082944;28;20485;-73
2021/03/06 11:29:02;;;;;;;0.60;0.60;;;20.20;42.30;;;;;;5069954;28;20512;-73
2021/03/06 11:31:31;;;;;;;0.50;0.50;;;20.20;42.30;;;;;;5069588;28;20476;-72
2021/03/06 11:33:57;;;;;;;0.80;0.80;;;20.20;42.30;;;;;;5059675;28;20476;-73
2021/03/06 11:36:23;;;;;;;1.93;0.97;;;20.20;42.40;;;;;;5066425;28;20482;-73
2021/03/06 11:38:50;;;;;;;1.10;1.10;;;20.10;42.30;;;;;;5068113;28;21154;-73
2021/03/06 11:41:16;;;;;;;1.37;0.63;;;20.10;42.40;;;;;;5070341;28;21039;-73
2021/03/06 11:43:42;;;;;;;0.70;0.50;;;20.10;42.40;;;;;;5070042;28;20888;-73
2021/03/06 11:46:08;;;;;;;0.60;0.60;;;20.10;42.30;;;;;;5076899;28;20553;-73
2021/03/06 11:48:35;;;;;;;0.83;0.60;;;20.10;42.30;;;;;;5084713;28;20566;-73
2021/03/06 11:51:02;;;;;;;2.13;0.70;;;20.10;42.30;;;;;;5074058;28;20482;-72
2021/03/06 11:53:28;;;;;;;1.33;0.70;;;20.10;42.40;;;;;;5087015;28;20853;-73
2021/03/06 11:55:54;;;;;;;0.90;0.67;;;20.10;42.40;;;;;;5074541;28;20476;-72
2021/03/06 11:58:20;;;;;;;1.83;0.60;;;20.10;42.40;;;;;;5084173;27;20478;-73
2021/03/06 12:00:47;;;;;;;0.90;0.40;;;20.10;42.40;;;;;;5084139;27;20503;-71
2021/03/06 12:03:13;;;;;;;0.93;0.70;;;20.10;42.40;;;;;;5094009;27;20479;-72
2021/03/06 12:05:40;;;;;;;0.70;0.70;;;20.10;42.50;;;;;;5073835;28;20487;-73
2021/03/06 12:08:06;;;;;;;1.17;0.60;;;20.10;42.50;;;;;;5073028;28;20543;-72
2021/03/06 12:10:33;;;;;;;2.17;0.67;;;20.10;42.40;;;;;;5070253;28;20512;-73
2021/03/06 12:12:59;;;;;;;3.03;0.70;;;20.10;42.30;;;;;;5074385;28;20474;-72
2021/03/06 12:15:26;;;;;;;0.73;0.60;;;20.10;42.30;;;;;;5070391;28;20488;-73
2021/03/06 12:17:52;;;;;;;1.00;1.00;;;20.10;42.30;;;;;;5071651;28;20569;-72
2021/03/06 12:20:18;;;;;;;1.63;0.73;;;20.10;42.20;;;;;;5073439;28;20480;-71
2021/03/06 12:22:46;;;;;;;0.50;0.50;;;20.10;42.30;;;;;;5070080;28;20547;-72
2021/03/06 12:25:13;;;;;;;0.50;0.50;;;20.10;42.40;;;;;;5072089;28;20507;-72
2021/03/06 12:27:39;;;;;;;0.60;0.60;;;20.10;42.30;;;;;;5060254;27;20484;-72
2021/03/06 12:30:06;;;;;;;0.60;0.60;;;20.10;42.30;;;;;;5100397;27;20523;-72
2021/03/06 12:32:33;;;;;;;1.17;0.70;;;20.20;42.40;;;;;;5072738;28;20519;-72
2021/03/06 12:34:59;;;;;;;2.63;1.17;;;20.20;42.20;;;;;;5073429;28;20473;-72
2021/03/06 12:37:26;;;;;;;0.83;0.60;;;20.20;42.10;;;;;;5073077;28;21625;-72
2021/03/06 12:39:53;;;;;;;0.53;0.50;;;20.20;42.10;;;;;;5071306;28;21448;-72
2021/03/06 12:42:19;;;;;;;2.00;0.60;;;20.20;42.10;;;;;;5073515;28;20485;-73
2021/03/06 12:44:45;;;;;;;1.67;0.50;;;20.20;42.20;;;;;;5072258;28;20489;-72
2021/03/06 12:47:11;;;;;;;0.70;0.70;;;20.20;42.20;;;;;;5069499;28;20478;-72
2021/03/06 12:49:37;;;;;;;0.93;0.60;;;20.20;42.20;;;;;;5073418;28;20533;-73
2021/03/06 12:52:04;;;;;;;3.37;1.00;;;20.10;42.10;;;;;;5071704;28;20478;-72